Haro, Spain
Current Conditions -  °F | °C
As of 3:30 AM on Thursday 18 Dec 2014 (Local Time) from LEVT Reporting Station
Broken Clouds Broken Clouds  
Wind Chill: 46°   Ceiling: 3200
Heat Index: 48°   Visibility: 6mi
Dew Point: 45°   Wind: 5mph
Humidity: 87%   Direction: 270°W
Pressure: 30.39"   Gusts: NA
Location:  42.58°N, 2.85°W
Report Text: LEVT 180230Z 27004KT 9999 SCT018 BKN032 09/07 Q1029
Loading
Personal Weather Stations






























Interactive Weather Map New forecast layout! Learn more

10-Day Weather Forecast

Advertisements
Track Severe Weather on mobile